Time;durP1;ratioP1;P1;durP2;ratioP2;P2;SDS_P1;SDS_P2;PMS_P1;PMS_P2;Temp;Humidity;BMP_temperature;BMP_pressure;BME280_temperature;BME280_humidity;BME280_pressure;Samples;Min_cycle;Max_cycle;Signal;HPM_P1;HPM_P2
2023/12/29 00:01:59;;;;;;;18.38;3.05;;;10.60;99.90;;;;;;5050637;28;20033;-48
2023/12/29 00:04:25;;;;;;;14.07;3.05;;;10.60;99.90;;;;;;5057001;28;20529;-51
2023/12/29 00:06:51;;;;;;;19.95;3.78;;;10.60;99.90;;;;;;5058698;28;20469;-51
2023/12/29 00:09:19;;;;;;;15.50;2.78;;;10.60;99.90;;;;;;5059868;28;20363;-52
2023/12/29 00:11:47;;;;;;;15.52;3.38;;;10.70;99.90;;;;;;5059064;28;20123;-49
2023/12/29 00:14:12;;;;;;;12.93;3.05;;;10.70;99.90;;;;;;5060171;28;20563;-53
2023/12/29 00:16:38;;;;;;;14.85;3.17;;;10.70;99.90;;;;;;5061067;28;20036;-50
2023/12/29 00:19:04;;;;;;;16.35;3.25;;;10.60;99.90;;;;;;5060072;28;20135;-53
2023/12/29 00:21:29;;;;;;;19.70;4.32;;;10.70;99.90;;;;;;5059471;28;20067;-48
2023/12/29 00:23:56;;;;;;;18.92;3.63;;;10.70;99.90;;;;;;5055222;28;20051;-51
2023/12/29 00:26:22;;;;;;;16.15;2.95;;;10.70;99.90;;;;;;5056058;28;20051;-50
2023/12/29 00:28:48;;;;;;;16.98;3.75;;;10.80;99.90;;;;;;5060294;28;20044;-50
2023/12/29 00:31:17;;;;;;;24.40;3.55;;;10.70;99.90;;;;;;5058100;28;20143;-51
2023/12/29 00:33:44;;;;;;;13.10;2.90;;;10.60;99.90;;;;;;5060748;28;20037;-50
2023/12/29 00:36:16;;;;;;;17.45;3.65;;;10.70;99.90;;;;;;5063839;28;20500;-51
2023/12/29 00:38:42;;;;;;;13.82;3.00;;;10.60;99.90;;;;;;5058910;28;20079;-49
2023/12/29 00:41:08;;;;;;;12.85;2.95;;;10.60;99.90;;;;;;5063956;28;20127;-49
2023/12/29 00:43:33;;;;;;;14.55;3.10;;;10.60;99.90;;;;;;5065298;28;20126;-51
2023/12/29 00:46:02;;;;;;;18.02;2.67;;;10.70;99.90;;;;;;5062939;28;20095;-52
2023/12/29 00:48:29;;;;;;;17.45;3.08;;;10.60;99.90;;;;;;5063230;28;20506;-52
2023/12/29 00:50:55;;;;;;;22.30;3.63;;;10.60;99.90;;;;;;5062449;28;20408;-51
2023/12/29 00:53:21;;;;;;;17.50;3.22;;;10.60;99.90;;;;;;5058636;28;20047;-48
2023/12/29 00:55:46;;;;;;;12.68;3.03;;;10.60;99.90;;;;;;5062703;28;20101;-50
2023/12/29 00:58:12;;;;;;;17.92;3.55;;;10.60;99.90;;;;;;5061658;28;20111;-52
2023/12/29 01:00:38;;;;;;;16.95;3.42;;;10.50;99.90;;;;;;5058129;28;20064;-52
2023/12/29 01:03:04;;;;;;;15.27;3.60;;;10.50;99.90;;;;;;5059155;28;20055;-52
2023/12/29 01:05:30;;;;;;;17.23;2.78;;;10.50;99.90;;;;;;5067251;28;20513;-49
2023/12/29 01:07:56;;;;;;;17.10;3.20;;;10.50;99.90;;;;;;5061226;28;20079;-51
2023/12/29 01:10:21;;;;;;;12.80;2.53;;;10.50;99.90;;;;;;5062262;28;20072;-49
2023/12/29 01:12:47;;;;;;;11.52;2.38;;;10.50;99.90;;;;;;5059953;28;20487;-52
2023/12/29 01:15:13;;;;;;;13.88;2.17;;;10.50;99.90;;;;;;5063646;28;20501;-52
2023/12/29 01:17:39;;;;;;;16.02;3.33;;;10.50;99.90;;;;;;5034719;28;20629;-52
2023/12/29 01:20:05;;;;;;;12.45;2.90;;;10.40;99.90;;;;;;5053305;28;20812;-50
2023/12/29 01:22:31;;;;;;;13.98;3.00;;;10.50;99.90;;;;;;5062709;28;20522;-50
2023/12/29 01:24:59;;;;;;;17.42;3.53;;;10.50;99.90;;;;;;5062279;28;20052;-49
2023/12/29 01:27:25;;;;;;;17.85;3.03;;;10.40;99.90;;;;;;5062368;28;20036;-52
2023/12/29 01:29:52;;;;;;;17.05;4.00;;;10.40;99.90;;;;;;5060947;28;20054;-49
2023/12/29 01:32:18;;;;;;;19.02;4.07;;;10.40;99.90;;;;;;5060657;28;20617;-51
2023/12/29 01:34:44;;;;;;;25.40;3.90;;;10.30;99.90;;;;;;5058389;28;20040;-48
2023/12/29 01:37:10;;;;;;;18.15;4.40;;;10.30;99.90;;;;;;5066576;28;20047;-51
2023/12/29 01:39:36;;;;;;;26.13;3.88;;;10.40;99.90;;;;;;5060569;28;20120;-50
2023/12/29 01:42:01;;;;;;;20.05;4.38;;;10.40;99.90;;;;;;5061827;28;20036;-52
2023/12/29 01:44:27;;;;;;;18.45;3.50;;;10.40;99.90;;;;;;5056554;28;20044;-50
2023/12/29 01:46:59;;;;;;;18.83;3.80;;;10.40;99.90;;;;;;5059061;28;20067;-51
2023/12/29 01:49:25;;;;;;;18.75;4.70;;;10.40;99.90;;;;;;5061014;28;20040;-51
2023/12/29 01:51:54;;;;;;;17.40;3.22;;;10.40;99.90;;;;;;5058997;28;20466;-50
2023/12/29 01:54:20;;;;;;;;;;;10.40;99.90;;;;;;5061332;28;20040;-50
2023/12/29 01:56:50;;;;;;;11.65;2.15;;;10.40;99.90;;;;;;5060083;28;20011;-50
2023/12/29 01:59:16;;;;;;;;;;;10.50;99.90;;;;;;5059189;28;20044;-53
2023/12/29 02:01:43;;;;;;;5.97;1.50;;;10.40;99.90;;;;;;5054985;28;20349;-49
2023/12/29 02:04:12;;;;;;;6.10;1.33;;;10.40;99.90;;;;;;5059304;28;20454;-49
2023/12/29 02:06:39;;;;;;;6.57;1.17;;;10.30;99.90;;;;;;5060404;28;20167;-51
2023/12/29 02:09:05;;;;;;;7.07;1.90;;;10.20;99.90;;;;;;5054603;28;20564;-51
2023/12/29 02:11:31;;;;;;;5.72;1.35;;;10.20;99.90;;;;;;5058633;28;20049;-50
2023/12/29 02:14:01;;;;;;;6.40;1.33;;;10.20;99.90;;;;;;5052371;28;20447;-51
2023/12/29 02:16:53;;;;;;;3.97;1.45;;;10.10;99.90;;;;;;5058235;28;20497;-50
2023/12/29 02:19:38;;;;;;;4.88;1.00;;;10.10;99.90;;;;;;5006781;28;20048;-49
2023/12/29 02:22:04;;;;;;;4.65;0.88;;;10.10;99.90;;;;;;5050449;28;20044;-50
2023/12/29 02:24:30;;;;;;;6.85;1.33;;;10.00;99.90;;;;;;5051325;28;20036;-49
2023/12/29 02:27:11;;;;;;;3.47;0.93;;;10.00;99.90;;;;;;5057366;28;20457;-50
2023/12/29 02:29:40;;;;;;;9.50;1.85;;;10.00;99.90;;;;;;5060210;28;20045;-52
2023/12/29 02:32:06;;;;;;;;;;;10.10;99.90;;;;;;5060702;28;20036;-49
2023/12/29 02:34:33;;;;;;;10.88;2.45;;;10.10;99.90;;;;;;5054014;28;20386;-50
2023/12/29 02:36:59;;;;;;;13.68;2.40;;;10.00;99.90;;;;;;5054334;28;20049;-49
2023/12/29 02:39:25;;;;;;;14.73;2.38;;;9.90;99.90;;;;;;5059410;28;20057;-49
2023/12/29 02:41:51;;;;;;;16.23;2.40;;;9.70;99.90;;;;;;5062968;28;20632;-52
2023/12/29 02:44:17;;;;;;;16.08;3.00;;;9.70;99.90;;;;;;5060419;28;20737;-52
2023/12/29 02:46:42;;;;;;;14.75;2.83;;;9.70;99.90;;;;;;5052170;28;20053;-48
2023/12/29 02:49:12;;;;;;;18.25;2.78;;;9.70;99.90;;;;;;5059488;28;20532;-50
2023/12/29 02:51:38;;;;;;;9.75;2.65;;;9.70;99.90;;;;;;5055183;28;20624;-48
2023/12/29 02:54:05;;;;;;;14.07;3.42;;;9.70;99.90;;;;;;5060209;28;20040;-49
2023/12/29 02:56:32;;;;;;;19.80;3.67;;;9.80;99.90;;;;;;5061418;28;20533;-51
2023/12/29 02:58:57;;;;;;;14.60;3.38;;;9.90;99.90;;;;;;5054937;28;20036;-50
2023/12/29 03:01:23;;;;;;;15.88;3.35;;;9.80;99.90;;;;;;5059577;28;20028;-48
2023/12/29 03:03:49;;;;;;;17.65;3.35;;;9.80;99.90;;;;;;5062176;28;20059;-50
2023/12/29 03:06:14;;;;;;;18.00;3.60;;;9.90;99.90;;;;;;5055180;28;20412;-49
2023/12/29 03:08:41;;;;;;;24.42;4.65;;;9.90;99.90;;;;;;5060961;28;20124;-50
2023/12/29 03:11:06;;;;;;;22.65;4.97;;;9.90;99.90;;;;;;5055055;28;20110;-52
2023/12/29 03:13:32;;;;;;;23.52;4.70;;;9.90;99.90;;;;;;5061176;28;20442;-49
2023/12/29 03:15:58;;;;;;;25.70;4.93;;;9.90;99.90;;;;;;5060657;28;20087;-52
2023/12/29 03:18:23;;;;;;;27.40;5.10;;;9.90;99.90;;;;;;5060638;28;20685;-50
2023/12/29 03:20:49;;;;;;;18.48;4.57;;;9.90;99.90;;;;;;5060483;28;20097;-50
2023/12/29 03:23:15;;;;;;;26.35;5.35;;;10.00;99.90;;;;;;5046113;28;20041;-52
2023/12/29 03:25:40;;;;;;;20.98;3.97;;;10.10;99.90;;;;;;5056931;28;20075;-52
2023/12/29 03:28:06;;;;;;;25.90;4.25;;;10.10;99.90;;;;;;5056863;28;20051;-49
2023/12/29 03:30:32;;;;;;;32.88;5.03;;;10.10;99.90;;;;;;5052275;28;20082;-50
2023/12/29 03:32:58;;;;;;;30.83;5.15;;;10.10;99.90;;;;;;5058455;28;20155;-49
2023/12/29 03:35:23;;;;;;;25.58;4.57;;;10.20;99.90;;;;;;5057086;28;20098;-50
2023/12/29 03:37:49;;;;;;;22.40;4.85;;;10.30;99.90;;;;;;5058932;28;20656;-48
2023/12/29 03:40:15;;;;;;;23.38;4.65;;;10.40;99.90;;;;;;5056109;28;20430;-49
2023/12/29 03:42:41;;;;;;;31.15;4.63;;;10.40;99.90;;;;;;5063296;28;20256;-50
2023/12/29 03:45:07;;;;;;;26.38;4.47;;;10.50;99.90;;;;;;5041971;28;20302;-52
2023/12/29 03:47:33;;;;;;;28.35;4.93;;;10.50;99.90;;;;;;5060492;28;20483;-50
2023/12/29 03:49:59;;;;;;;23.23;5.00;;;10.50;99.90;;;;;;5058108;28;20432;-51
2023/12/29 03:52:25;;;;;;;28.13;4.90;;;10.40;99.90;;;;;;5036766;28;20045;-52
2023/12/29 03:54:50;;;;;;;28.40;4.95;;;10.40;99.90;;;;;;5058772;28;20040;-49
2023/12/29 03:57:16;;;;;;;37.78;6.30;;;10.50;99.90;;;;;;5053635;28;20143;-51
2023/12/29 03:59:42;;;;;;;29.15;4.95;;;10.40;99.90;;;;;;5060727;28;20110;-48
2023/12/29 04:02:07;;;;;;;25.00;5.57;;;10.40;99.90;;;;;;5060667;28;20047;-49
2023/12/29 04:04:37;;;;;;;34.72;6.05;;;10.50;99.90;;;;;;5061052;28;20395;-51
2023/12/29 04:07:03;;;;;;;27.17;6.75;;;10.40;99.90;;;;;;5056385;28;20044;-53
2023/12/29 04:09:28;;;;;;;24.98;4.35;;;10.40;99.90;;;;;;5057399;28;20608;-52
2023/12/29 04:11:54;;;;;;;27.20;4.90;;;10.50;99.90;;;;;;5062356;28;20511;-53
2023/12/29 04:14:20;;;;;;;20.55;5.07;;;10.40;99.90;;;;;;5062050;28;20409;-49
2023/12/29 04:16:45;;;;;;;25.58;5.85;;;10.50;99.90;;;;;;5062557;28;20054;-48
2023/12/29 04:19:11;;;;;;;26.50;4.60;;;10.40;99.90;;;;;;5061884;28;20050;-48
2023/12/29 04:21:37;;;;;;;27.42;4.97;;;10.50;99.90;;;;;;5061123;28;20395;-51
2023/12/29 04:24:03;;;;;;;37.53;5.20;;;10.40;99.90;;;;;;5061981;28;20036;-53
2023/12/29 04:26:28;;;;;;;34.15;6.03;;;10.40;99.90;;;;;;5055616;28;20632;-49
2023/12/29 04:28:54;;;;;;;25.45;4.85;;;10.40;99.90;;;;;;5063764;28;20040;-50
2023/12/29 04:31:20;;;;;;;28.33;5.30;;;10.40;99.90;;;;;;5060543;28;20350;-52
2023/12/29 04:33:45;;;;;;;31.98;6.63;;;10.40;99.90;;;;;;5064446;28;20372;-51
2023/12/29 04:36:13;;;;;;;36.70;7.68;;;10.40;99.90;;;;;;5062783;28;20032;-49
2023/12/29 04:38:39;;;;;;;25.83;4.95;;;10.40;99.90;;;;;;5061285;28;20044;-51
2023/12/29 04:41:05;;;;;;;27.67;5.90;;;10.40;99.90;;;;;;5063286;28;20033;-48
2023/12/29 04:43:31;;;;;;;33.90;5.82;;;10.40;99.90;;;;;;5058755;28;20051;-53
2023/12/29 04:45:57;;;;;;;26.75;5.75;;;10.40;99.90;;;;;;5061231;28;20098;-52
2023/12/29 04:48:22;;;;;;;24.80;5.15;;;10.40;99.90;;;;;;5053962;28;20505;-48
2023/12/29 04:50:48;;;;;;;31.55;4.88;;;10.50;99.90;;;;;;5061682;28;20053;-52
2023/12/29 04:53:14;;;;;;;23.40;4.45;;;10.40;99.90;;;;;;5064183;28;20062;-51
2023/12/29 04:55:39;;;;;;;26.30;3.85;;;10.40;99.90;;;;;;5057167;28;20190;-48
2023/12/29 04:58:06;;;;;;;23.38;4.18;;;10.50;99.90;;;;;;5045344;28;20041;-50
2023/12/29 05:00:31;;;;;;;23.55;4.20;;;10.40;99.90;;;;;;5061008;28;20987;-52
2023/12/29 05:02:57;;;;;;;23.48;4.80;;;10.40;99.90;;;;;;5063355;28;20087;-50
2023/12/29 05:05:23;;;;;;;24.63;4.40;;;10.40;99.90;;;;;;5057533;28;20070;-48
2023/12/29 05:07:48;;;;;;;24.75;4.50;;;10.40;99.90;;;;;;5059929;28;20044;-52
2023/12/29 05:10:14;;;;;;;27.00;4.20;;;10.40;99.90;;;;;;5060250;28;20045;-52
2023/12/29 05:12:40;;;;;;;25.52;4.10;;;10.30;99.90;;;;;;5058501;28;20289;-52
2023/12/29 05:15:06;;;;;;;22.90;4.47;;;10.30;99.90;;;;;;5060212;28;20461;-49
2023/12/29 05:17:32;;;;;;;21.70;4.82;;;10.30;99.90;;;;;;5063806;28;20409;-49
2023/12/29 05:19:58;;;;;;;25.48;6.20;;;10.30;99.90;;;;;;5063175;28;20139;-49
2023/12/29 05:22:23;;;;;;;22.77;4.68;;;10.30;99.90;;;;;;5060577;28;20075;-49
2023/12/29 05:24:49;;;;;;;26.23;4.97;;;10.30;99.90;;;;;;5063469;28;20411;-52
2023/12/29 05:27:15;;;;;;;32.58;6.03;;;10.40;99.90;;;;;;5062311;28;20508;-53
2023/12/29 05:29:41;;;;;;;29.48;5.50;;;10.40;99.90;;;;;;5063222;28;20040;-50
2023/12/29 05:32:08;;;;;;;29.67;5.35;;;10.40;99.90;;;;;;5063654;28;20135;-49
2023/12/29 05:34:34;;;;;;;27.00;5.20;;;10.40;99.90;;;;;;5062977;28;20052;-50
2023/12/29 05:36:59;;;;;;;30.77;4.93;;;10.40;99.90;;;;;;5067343;28;20067;-52
2023/12/29 05:39:25;;;;;;;26.42;4.90;;;10.40;99.90;;;;;;5048795;28;20121;-51
2023/12/29 05:41:51;;;;;;;26.85;5.18;;;10.40;99.90;;;;;;5064787;28;20024;-53
2023/12/29 05:44:17;;;;;;;32.13;5.45;;;10.40;99.90;;;;;;5059152;28;20449;-52
2023/12/29 05:46:46;;;;;;;27.00;5.30;;;10.40;99.90;;;;;;5058535;28;20041;-50
2023/12/29 05:49:12;;;;;;;23.80;5.18;;;10.40;99.90;;;;;;5058023;28;20578;-51
2023/12/29 05:51:38;;;;;;;29.80;5.30;;;10.40;99.90;;;;;;5061302;28;20051;-51
2023/12/29 05:54:04;;;;;;;31.00;5.25;;;10.40;99.90;;;;;;5057497;28;20088;-51
2023/12/29 05:56:29;;;;;;;34.03;5.47;;;10.40;99.90;;;;;;5060691;28;20072;-51
2023/12/29 05:58:55;;;;;;;23.95;4.00;;;10.40;99.90;;;;;;5061037;28;20461;-52
2023/12/29 06:01:21;;;;;;;27.98;5.88;;;10.40;99.90;;;;;;5061477;28;20143;-53
2023/12/29 06:03:47;;;;;;;25.45;4.93;;;10.40;99.90;;;;;;5063235;28;20463;-52
2023/12/29 06:06:13;;;;;;;26.63;4.80;;;10.40;99.90;;;;;;5062130;28;20032;-53
2023/12/29 06:08:38;;;;;;;25.83;5.13;;;10.40;99.90;;;;;;5060928;28;20467;-51
2023/12/29 06:11:04;;;;;;;29.58;5.43;;;10.40;99.90;;;;;;5058933;28;20041;-50
2023/12/29 06:13:30;;;;;;;20.23;4.55;;;10.30;99.90;;;;;;5053695;28;20143;-48
2023/12/29 06:15:55;;;;;;;27.65;4.90;;;10.40;99.90;;;;;;5057103;28;20076;-51
2023/12/29 06:18:21;;;;;;;20.00;4.28;;;10.30;99.90;;;;;;5060197;28;20143;-52
2023/12/29 06:20:47;;;;;;;28.25;5.07;;;10.40;99.90;;;;;;5062595;28;20036;-51
2023/12/29 06:23:13;;;;;;;28.30;5.72;;;10.40;99.90;;;;;;5061620;28;20898;-50
2023/12/29 06:25:41;;;;;;;27.55;4.88;;;10.40;99.90;;;;;;5062806;28;20095;-52
2023/12/29 06:28:07;;;;;;;24.02;5.00;;;10.30;99.90;;;;;;5056146;28;20041;-51
2023/12/29 06:30:33;;;;;;;27.08;4.90;;;10.20;99.90;;;;;;5039751;28;20860;-48
2023/12/29 06:32:58;;;;;;;26.27;5.07;;;10.20;99.90;;;;;;5061312;28;20048;-49
2023/12/29 06:35:24;;;;;;;27.88;5.03;;;10.10;99.90;;;;;;5061168;28;20037;-52
2023/12/29 06:37:50;;;;;;;28.48;5.28;;;10.10;99.90;;;;;;5065659;28;20041;-52
2023/12/29 06:40:18;;;;;;;29.10;4.85;;;10.00;99.90;;;;;;5061033;28;20155;-50
2023/12/29 06:42:43;;;;;;;24.23;4.82;;;10.00;99.90;;;;;;5063882;28;20044;-51
2023/12/29 06:45:09;;;;;;;34.05;5.20;;;9.90;99.90;;;;;;5060153;28;20063;-52
2023/12/29 06:47:35;;;;;;;34.78;4.82;;;9.80;99.90;;;;;;5053719;28;20037;-51
2023/12/29 06:50:02;;;;;;;21.98;4.45;;;9.90;99.90;;;;;;5057390;28;20040;-52
2023/12/29 06:52:33;;;;;;;23.40;4.28;;;9.80;99.90;;;;;;5056409;28;20499;-49
2023/12/29 06:55:00;;;;;;;23.55;4.68;;;9.70;99.90;;;;;;5040002;28;20080;-48
2023/12/29 06:57:27;;;;;;;27.48;5.32;;;9.80;99.90;;;;;;5055981;28;20461;-51
2023/12/29 06:59:52;;;;;;;30.00;6.10;;;9.80;99.90;;;;;;5055936;28;20506;-49
2023/12/29 07:02:18;;;;;;;28.40;4.65;;;9.80;99.90;;;;;;5060399;28;20117;-49
2023/12/29 07:04:44;;;;;;;27.25;4.35;;;9.90;99.90;;;;;;5061512;28;20402;-51
2023/12/29 07:07:10;;;;;;;25.80;4.53;;;9.90;99.90;;;;;;5059234;28;20028;-52
2023/12/29 07:09:39;;;;;;;33.97;5.07;;;9.90;99.90;;;;;;5060304;28;20044;-50
2023/12/29 07:12:05;;;;;;;31.83;5.63;;;10.00;99.90;;;;;;5059520;28;20398;-53
2023/12/29 07:14:31;;;;;;;35.53;5.85;;;10.10;99.90;;;;;;5057134;28;20044;-52
2023/12/29 07:16:58;;;;;;;36.13;6.70;;;10.10;99.90;;;;;;5058944;28;20028;-51
2023/12/29 07:19:23;;;;;;;28.20;5.18;;;10.10;99.90;;;;;;5059185;28;20067;-51
2023/12/29 07:21:49;;;;;;;28.45;4.80;;;10.10;99.90;;;;;;5058602;28;20500;-50
2023/12/29 07:24:15;;;;;;;27.25;5.10;;;10.10;99.90;;;;;;5056671;28;20727;-51
2023/12/29 07:26:41;;;;;;;31.23;4.93;;;10.10;99.90;;;;;;5057784;28;20380;-49
2023/12/29 07:29:06;;;;;;;41.20;6.40;;;10.10;99.90;;;;;;5057701;28;20372;-50
2023/12/29 07:31:33;;;;;;;33.30;4.68;;;9.90;99.90;;;;;;5055608;28;20479;-50
2023/12/29 07:33:59;;;;;;;33.30;5.90;;;9.90;99.90;;;;;;5059467;28;20100;-50
2023/12/29 07:36:25;;;;;;;36.20;5.80;;;9.80;99.90;;;;;;5060057;28;20607;-51
2023/12/29 07:38:51;;;;;;;29.38;4.55;;;9.90;99.90;;;;;;5056997;28;20047;-52
2023/12/29 07:41:17;;;;;;;31.20;5.63;;;9.80;99.90;;;;;;5061155;28;20036;-48
2023/12/29 07:43:43;;;;;;;29.90;4.72;;;9.70;99.90;;;;;;5061211;28;20082;-53
2023/12/29 07:46:09;;;;;;;34.00;5.53;;;9.80;99.90;;;;;;5061648;28;20044;-51
2023/12/29 07:48:34;;;;;;;26.95;4.53;;;9.70;99.90;;;;;;5066016;28;20052;-49
2023/12/29 07:51:05;;;;;;;38.67;4.63;;;9.70;99.90;;;;;;5055756;28;20616;-49
2023/12/29 07:53:31;;;;;;;26.73;4.85;;;9.80;99.90;;;;;;5063868;28;20040;-48
2023/12/29 07:55:57;;;;;;;25.08;4.38;;;9.80;99.90;;;;;;5061473;28;20605;-49
2023/12/29 07:58:22;;;;;;;34.58;6.05;;;9.80;99.90;;;;;;5063209;28;20123;-52
2023/12/29 08:00:48;;;;;;;30.42;4.80;;;9.90;99.90;;;;;;5058029;28;20372;-49
2023/12/29 08:03:14;;;;;;;33.17;5.47;;;9.80;99.90;;;;;;5062203;28;20044;-48
2023/12/29 08:05:40;;;;;;;26.83;4.32;;;9.80;99.90;;;;;;5057428;28;20054;-48
2023/12/29 08:08:06;;;;;;;25.42;4.55;;;9.90;99.90;;;;;;5064006;28;20105;-51
2023/12/29 08:10:31;;;;;;;28.30;5.07;;;9.90;99.90;;;;;;5044614;28;20103;-52
2023/12/29 08:12:57;;;;;;;34.92;5.57;;;9.80;99.90;;;;;;5063593;28;20454;-50
2023/12/29 08:15:23;;;;;;;24.50;4.80;;;9.90;99.90;;;;;;5062438;28;20088;-50
2023/12/29 08:17:49;;;;;;;21.65;4.28;;;10.00;99.90;;;;;;5061218;28;20379;-50
2023/12/29 08:20:14;;;;;;;29.15;5.35;;;10.00;99.90;;;;;;5062821;28;20037;-52
2023/12/29 08:22:41;;;;;;;30.45;5.65;;;10.00;99.90;;;;;;5059738;28;20037;-49
2023/12/29 08:25:07;;;;;;;26.27;4.53;;;10.00;99.90;;;;;;5062807;28;20982;-52
2023/12/29 08:27:33;;;;;;;28.33;5.45;;;10.10;99.90;;;;;;5062093;28;20044;-49
2023/12/29 08:29:59;;;;;;;26.77;5.13;;;10.10;99.90;;;;;;5062647;28;20043;-49
2023/12/29 08:32:25;;;;;;;30.15;5.82;;;10.10;99.90;;;;;;5039811;28;20582;-50
2023/12/29 08:34:50;;;;;;;31.98;4.93;;;10.10;99.90;;;;;;5059949;28;20103;-50
2023/12/29 08:37:19;;;;;;;31.90;7.03;;;10.10;99.90;;;;;;5062951;28;20486;-53
2023/12/29 08:39:48;;;;;;;30.85;5.35;;;10.10;99.90;;;;;;5062828;28;20040;-51
2023/12/29 08:42:14;;;;;;;29.77;4.95;;;10.10;99.90;;;;;;5043156;28;20040;-49
2023/12/29 08:44:40;;;;;;;19.95;4.45;;;10.10;99.90;;;;;;5062376;28;20052;-51
2023/12/29 08:47:09;;;;;;;30.42;5.05;;;10.10;99.90;;;;;;5061997;28;20040;-48
2023/12/29 08:49:36;;;;;;;;;;;10.10;99.90;;;;;;5061811;28;20548;-49
2023/12/29 08:52:02;;;;;;;21.63;4.70;;;10.20;99.90;;;;;;5061494;28;19921;-52
2023/12/29 08:54:28;;;;;;;24.08;4.38;;;10.20;99.90;;;;;;5062733;28;20048;-53
2023/12/29 08:56:53;;;;;;;25.15;4.07;;;10.20;99.90;;;;;;5064624;28;20033;-51
2023/12/29 08:59:19;;;;;;;31.75;6.47;;;10.20;99.90;;;;;;5062171;28;20113;-52
2023/12/29 09:01:45;;;;;;;26.00;4.72;;;10.10;99.90;;;;;;5057911;28;20040;-53
2023/12/29 09:04:10;;;;;;;32.45;5.10;;;10.10;99.90;;;;;;5059796;28;20045;-49
2023/12/29 09:06:36;;;;;;;22.80;4.25;;;10.10;99.90;;;;;;5060601;28;20226;-51
2023/12/29 09:09:02;;;;;;;35.47;5.20;;;10.00;99.90;;;;;;5058217;28;20408;-50
2023/12/29 09:11:28;;;;;;;29.23;5.57;;;10.10;99.90;;;;;;5062341;28;20552;-51
2023/12/29 09:13:53;;;;;;;24.33;5.47;;;10.10;99.90;;;;;;5060699;28;20087;-51
2023/12/29 09:16:19;;;;;;;36.58;5.93;;;10.10;99.90;;;;;;5060996;28;20115;-52
2023/12/29 09:18:45;;;;;;;23.98;5.30;;;10.10;99.90;;;;;;5057832;28;20045;-51
2023/12/29 09:21:11;;;;;;;32.47;6.18;;;10.10;99.90;;;;;;5061914;28;20504;-54
2023/12/29 09:23:38;;;;;;;29.60;5.03;;;10.10;99.90;;;;;;5059266;28;20048;-53
2023/12/29 09:26:04;;;;;;;27.50;5.85;;;10.20;99.90;;;;;;5061999;28;20055;-51
2023/12/29 09:28:32;;;;;;;25.73;4.38;;;10.30;99.90;;;;;;5063087;28;20122;-52
2023/12/29 09:30:58;;;;;;;22.83;3.72;;;10.40;99.90;;;;;;5060719;28;20036;-51
2023/12/29 09:33:24;;;;;;;17.52;3.78;;;10.30;99.90;;;;;;5056911;28;20032;-51
2023/12/29 09:35:51;;;;;;;21.88;4.65;;;10.30;99.90;;;;;;5058096;28;20049;-52
2023/12/29 09:38:16;;;;;;;25.52;4.68;;;10.40;99.90;;;;;;5060507;28;20375;-52
2023/12/29 09:40:43;;;;;;;20.52;4.20;;;10.40;99.90;;;;;;5061766;28;20054;-49
2023/12/29 09:43:09;;;;;;;32.45;5.03;;;10.40;99.90;;;;;;5057451;28;20039;-48
2023/12/29 09:45:38;;;;;;;25.92;4.25;;;10.40;99.90;;;;;;5055869;28;20449;-51
2023/12/29 09:48:08;;;;;;;24.88;4.60;;;10.50;99.90;;;;;;5061985;28;20495;-50
2023/12/29 09:50:35;;;;;;;28.05;4.05;;;10.50;99.90;;;;;;5063068;28;20056;-52
2023/12/29 09:53:02;;;;;;;32.13;5.07;;;10.50;99.90;;;;;;5062639;28;20040;-49
2023/12/29 09:55:28;;;;;;;23.83;5.18;;;10.50;99.90;;;;;;5062412;28;20088;-48
2023/12/29 09:57:55;;;;;;;34.60;5.65;;;10.50;99.90;;;;;;5063041;28;20082;-50
2023/12/29 10:00:21;;;;;;;27.30;4.07;;;10.60;99.90;;;;;;5061313;28;20119;-51
2023/12/29 10:02:51;;;;;;;20.80;4.70;;;10.60;99.90;;;;;;5061368;28;20123;-47
2023/12/29 10:05:17;;;;;;;22.60;4.30;;;10.60;99.90;;;;;;5060695;28;20059;-48
2023/12/29 10:07:45;;;;;;;32.13;5.30;;;10.70;99.90;;;;;;5057254;28;21167;-52
2023/12/29 10:10:18;;;;;;;22.10;3.88;;;10.60;99.90;;;;;;5062589;28;20359;-51
2023/12/29 10:12:47;;;;;;;28.70;4.22;;;10.70;99.90;;;;;;5060918;28;20056;-50
2023/12/29 10:15:42;;;;;;;24.33;3.38;;;10.70;99.90;;;;;;5058689;28;20136;-50
2023/12/29 10:18:32;;;;;;;24.23;4.38;;;10.70;99.90;;;;;;5056815;28;20036;-49
2023/12/29 10:20:57;;;;;;;24.43;4.70;;;10.70;99.90;;;;;;5060411;28;20526;-49
2023/12/29 10:23:34;;;;;;;17.30;4.20;;;10.70;99.90;;;;;;5061735;28;20086;-48
2023/12/29 10:26:00;;;;;;;28.00;4.55;;;10.70;99.90;;;;;;5061234;28;20471;-48
2023/12/29 10:28:26;;;;;;;22.17;3.83;;;10.70;99.90;;;;;;5061981;28;20487;-52
2023/12/29 10:30:52;;;;;;;22.42;3.85;;;10.70;99.90;;;;;;5062163;28;20051;-51
2023/12/29 10:33:21;;;;;;;17.13;3.10;;;10.70;99.90;;;;;;5055424;28;20051;-49
2023/12/29 10:36:02;;;;;;;20.45;3.92;;;10.80;99.90;;;;;;5044520;28;20035;-50
2023/12/29 10:38:29;;;;;;;13.98;3.30;;;10.70;99.90;;;;;;5057665;28;20047;-52
2023/12/29 10:41:09;;;;;;;20.67;4.13;;;10.60;99.90;;;;;;5067137;28;20517;-50
2023/12/29 10:43:35;;;;;;;18.27;3.67;;;10.70;99.90;;;;;;5054462;28;20079;-53
2023/12/29 10:46:08;;;;;;;19.33;3.35;;;10.60;99.90;;;;;;5056941;28;20036;-51
2023/12/29 10:48:35;;;;;;;21.85;3.55;;;10.60;99.90;;;;;;5057375;28;20041;-49
2023/12/29 10:51:03;;;;;;;17.50;3.35;;;10.50;99.90;;;;;;5056309;28;20032;-49
2023/12/29 10:53:31;;;;;;;20.38;3.60;;;10.40;99.90;;;;;;5061233;28;20045;-52
2023/12/29 10:56:00;;;;;;;22.77;3.90;;;10.30;99.90;;;;;;5061754;28;20055;-51
2023/12/29 10:58:32;;;;;;;17.10;3.53;;;10.40;99.90;;;;;;5059562;28;20500;-50
2023/12/29 11:00:59;;;;;;;17.27;3.47;;;10.40;99.90;;;;;;5060773;28;20089;-51
2023/12/29 11:03:26;;;;;;;24.67;3.22;;;10.50;99.90;;;;;;5061135;28;20256;-51
2023/12/29 11:06:02;;;;;;;19.17;3.35;;;10.30;99.90;;;;;;5058631;28;20131;-49
2023/12/29 11:08:28;;;;;;;19.50;3.33;;;10.40;99.90;;;;;;5055437;28;20048;-51
2023/12/29 11:10:54;;;;;;;14.82;3.67;;;10.40;99.90;;;;;;5041257;28;20082;-51
2023/12/29 11:13:21;;;;;;;23.73;2.95;;;10.40;99.90;;;;;;5060596;28;20515;-52
2023/12/29 11:15:47;;;;;;;14.63;2.90;;;10.40;99.90;;;;;;5038105;28;20048;-52
2023/12/29 11:18:15;;;;;;;13.55;2.63;;;10.20;99.90;;;;;;5052512;28;20044;-53
2023/12/29 11:20:42;;;;;;;17.67;3.72;;;10.20;99.90;;;;;;5054114;28;20532;-50
2023/12/29 11:23:11;;;;;;;20.23;3.47;;;10.20;99.90;;;;;;5056992;28;20037;-53
2023/12/29 11:25:38;;;;;;;16.95;3.08;;;10.20;99.90;;;;;;5055763;28;20048;-51
2023/12/29 11:28:06;;;;;;;18.02;3.85;;;10.30;99.90;;;;;;5058817;28;20044;-52
2023/12/29 11:30:32;;;;;;;12.63;3.08;;;10.30;99.90;;;;;;5059840;28;20059;-52
2023/12/29 11:33:02;;;;;;;20.25;3.78;;;10.20;99.90;;;;;;5059952;28;20048;-52
2023/12/29 11:35:56;;;;;;;19.50;3.67;;;10.20;99.90;;;;;;5051402;28;20320;-49
2023/12/29 11:38:48;;;;;;;13.73;3.28;;;10.20;99.90;;;;;;5054990;28;20040;-51
2023/12/29 11:41:20;;;;;;;18.20;3.38;;;10.70;99.90;;;;;;5058503;28;20392;-52
2023/12/29 11:43:57;;;;;;;19.63;3.05;;;10.40;99.90;;;;;;5056319;28;20076;-52
2023/12/29 11:46:42;;;;;;;14.75;3.65;;;10.60;99.90;;;;;;5054908;28;20040;-50
2023/12/29 11:49:09;;;;;;;21.70;3.67;;;10.80;99.90;;;;;;5049572;28;20743;-53
2023/12/29 11:51:48;;;;;;;12.63;3.45;;;10.80;99.90;;;;;;5060966;28;20048;-52
2023/12/29 11:54:26;;;;;;;15.05;3.47;;;10.90;99.90;;;;;;5056601;28;20040;-50
2023/12/29 11:56:54;;;;;;;13.60;3.08;;;10.90;99.90;;;;;;5056158;28;20037;-51
2023/12/29 11:59:20;;;;;;;14.35;2.58;;;11.00;99.90;;;;;;5059681;28;20108;-51
2023/12/29 12:02:26;;;;;;;18.55;3.22;;;11.00;99.90;;;;;;5060475;28;20549;-52
2023/12/29 12:04:52;;;;;;;16.80;3.17;;;11.10;99.90;;;;;;5056912;28;20037;-52
2023/12/29 12:07:40;;;;;;;13.88;2.90;;;11.10;99.90;;;;;;5055874;28;20040;-50
2023/12/29 12:10:29;;;;;;;19.48;3.90;;;11.00;99.90;;;;;;5043566;28;20049;-52
2023/12/29 12:12:56;;;;;;;15.48;2.95;;;10.90;99.90;;;;;;5059496;28;20490;-51
2023/12/29 12:15:28;;;;;;;13.75;3.00;;;10.90;99.90;;;;;;5053383;28;20083;-51
2023/12/29 12:18:10;;;;;;;15.65;3.53;;;10.80;99.90;;;;;;5057652;28;20036;-50
2023/12/29 12:20:36;;;;;;;11.57;2.28;;;10.80;99.90;;;;;;5056611;28;20110;-53
2023/12/29 12:23:17;;;;;;;16.05;3.38;;;10.70;99.90;;;;;;5058222;28;20036;-49
2023/12/29 12:25:45;;;;;;;13.07;3.08;;;10.60;99.90;;;;;;5057429;28;20525;-50
2023/12/29 12:28:14;;;;;;;17.10;2.70;;;10.60;99.90;;;;;;5056962;28;20506;-51
2023/12/29 12:30:40;;;;;;;15.85;2.55;;;10.60;99.90;;;;;;5055273;28;20459;-49
2023/12/29 12:33:07;;;;;;;16.65;2.92;;;10.40;99.90;;;;;;5060635;28;20486;-49
2023/12/29 12:35:33;;;;;;;14.57;2.90;;;10.30;99.90;;;;;;5056993;28;20059;-49
2023/12/29 12:38:09;;;;;;;14.98;2.60;;;10.20;99.90;;;;;;5060819;28;20044;-49
2023/12/29 12:40:35;;;;;;;16.83;3.00;;;10.30;99.90;;;;;;5062234;28;20530;-52
2023/12/29 12:43:01;;;;;;;16.85;2.67;;;10.30;99.90;;;;;;5053090;28;20167;-52